Time;durP1;ratioP1;P1;durP2;ratioP2;P2;SDS_P1;SDS_P2;PMS_P1;PMS_P2;Temp;Humidity;BMP_temperature;BMP_pressure;BME280_temperature;BME280_humidity;BME280_pressure;Samples;Min_cycle;Max_cycle;Signal;HPM_P1;HPM_P2
2024/01/01 00:00:12;;;;;;;2.20;2.00;;;;;;;9.01;nan;98871.19;4982323;28;20191;-83
2024/01/01 00:02:38;;;;;;;2.55;2.35;;;;;;;8.98;nan;98868.78;4984456;28;20199;-80
2024/01/01 00:05:04;;;;;;;2.73;2.33;;;;;;;8.94;nan;98869.94;4976294;28;20694;-82
2024/01/01 00:07:29;;;;;;;2.40;2.20;;;;;;;8.99;nan;98854.75;4981176;28;21127;-83
2024/01/01 00:09:54;;;;;;;4.60;1.93;;;;;;;8.99;nan;98854.75;4980445;28;20199;-82
2024/01/01 00:12:20;;;;;;;4.23;2.23;;;;;;;9.01;nan;98852.03;4979521;28;20471;-81
2024/01/01 00:14:46;;;;;;;4.47;1.55;;;;;;;9.03;nan;98864.06;4979559;28;20207;-81
2024/01/01 00:17:13;;;;;;;2.50;1.50;;;;;;;9.05;nan;98850.88;4986238;28;20428;-84
2024/01/01 00:19:39;;;;;;;2.72;1.13;;;;;;;9.08;nan;98848.88;4988606;28;20222;-82
2024/01/01 00:22:04;;;;;;;2.20;1.30;;;;;;;9.11;nan;98854.84;4984517;28;20195;-81
2024/01/01 00:24:30;;;;;;;3.07;1.40;;;;;;;9.10;nan;98856.63;4988943;28;20472;-83
2024/01/01 00:26:55;;;;;;;4.20;1.60;;;;;;;9.08;nan;98867.22;4963666;28;20870;-80
2024/01/01 00:29:20;;;;;;;4.10;1.87;;;;;;;9.11;nan;98866.16;4989354;28;20210;-82
2024/01/01 00:31:46;;;;;;;4.47;1.83;;;;;;;9.12;nan;98857.34;4987442;28;20203;-80
2024/01/01 00:34:11;;;;;;;2.17;1.23;;;;;;;9.11;nan;98860.91;4988274;28;20257;-82
2024/01/01 00:36:37;;;;;;;3.27;1.43;;;;;;;9.09;nan;98853.16;4987265;28;20204;-82
2024/01/01 00:39:02;;;;;;;1.47;1.00;;;;;;;9.11;nan;98863.53;4969029;28;20235;-81
2024/01/01 00:41:28;;;;;;;3.20;1.30;;;;;;;9.10;nan;98848.78;4968123;28;20416;-85
2024/01/01 00:43:53;;;;;;;3.67;1.63;;;;;;;9.08;nan;98856.72;4972867;28;20520;-82
2024/01/01 00:46:19;;;;;;;3.13;1.23;;;;;;;9.02;nan;98862.41;4974196;28;20225;-80
2024/01/01 00:48:44;;;;;;;3.60;1.50;;;;;;;9.03;nan;98873.72;4974777;28;20273;-83
2024/01/01 00:51:10;;;;;;;1.87;1.27;;;;;;;9.02;nan;98862.41;4993815;28;20211;-81
2024/01/01 00:53:35;;;;;;;1.53;1.43;;;;;;;8.96;nan;98862.81;4970132;28;20775;-86
2024/01/01 00:56:01;;;;;;;3.83;1.07;;;;;;;8.93;nan;98868.25;4975298;28;20211;-83
2024/01/01 00:58:26;;;;;;;1.90;1.27;;;;;;;8.86;nan;98874.88;4995117;28;20583;-81
2024/01/01 01:00:52;;;;;;;4.10;1.43;;;;;;;8.85;nan;98875.81;4991035;28;20231;-84
2024/01/01 01:03:17;;;;;;;2.20;1.37;;;;;;;8.84;nan;98882.00;4986595;28;20191;-82
2024/01/01 01:05:43;;;;;;;2.27;1.60;;;;;;;8.82;nan;98886.50;4966314;28;21013;-80
2024/01/01 01:08:08;;;;;;;2.30;1.47;;;;;;;8.84;nan;98872.34;4987780;28;20842;-82
2024/01/01 01:10:33;;;;;;;3.90;1.40;;;;;;;8.88;nan;98875.59;4967670;28;20432;-82
2024/01/01 01:12:59;;;;;;;1.90;1.13;;;;;;;8.90;nan;98871.09;4980834;28;21017;-84
2024/01/01 01:15:26;;;;;;;2.07;1.10;;;;;;;8.87;nan;98881.78;4974383;28;20235;-82
2024/01/01 01:17:52;;;;;;;2.55;1.35;;;;;;;8.90;nan;98891.22;4992759;28;20200;-83
2024/01/01 01:20:19;;;;;;;5.27;1.73;;;;;;;8.89;nan;98887.75;4963211;28;20203;-83
2024/01/01 01:22:44;;;;;;;1.60;1.50;;;;;;;8.90;nan;98888.59;4986767;28;20465;-81
2024/01/01 01:25:10;;;;;;;3.77;1.20;;;;;;;8.86;nan;98893.22;4981846;28;20268;-83
2024/01/01 01:27:36;;;;;;;2.75;1.40;;;;;;;8.84;nan;98895.09;4985222;28;20226;-81
2024/01/01 01:30:02;;;;;;;3.00;1.00;;;;;;;8.80;nan;98901.47;4986077;28;20317;-81
2024/01/01 01:32:28;;;;;;;3.35;1.05;;;;;;;8.76;nan;98890.38;4987680;28;20195;-81
2024/01/01 01:34:56;;;;;;;3.07;1.00;;;;;;;8.73;nan;98884.50;4968331;28;20208;-83
2024/01/01 01:37:21;;;;;;;2.85;1.25;;;;;;;8.70;nan;98896.03;4986862;28;20673;-83
2024/01/01 01:39:47;;;;;;;4.40;2.03;;;;;;;8.67;nan;98892.75;4988970;28;20203;-81
2024/01/01 01:42:12;;;;;;;1.00;0.80;;;;;;;8.60;nan;98901.03;4964773;28;20208;-84
2024/01/01 01:44:38;;;;;;;2.10;1.33;;;;;;;8.57;nan;98906.47;4980068;28;20294;-82
2024/01/01 01:47:04;;;;;;;2.00;0.80;;;;;;;8.54;nan;98917.16;4967140;28;20223;-83
2024/01/01 01:49:30;;;;;;;9.23;3.30;;;;;;;8.51;nan;98904.28;4967825;28;20233;-84
2024/01/01 01:51:57;;;;;;;2.88;1.02;;;;;;;8.48;nan;98914.94;4982365;28;20230;-81
2024/01/01 01:54:24;;;;;;;3.63;0.82;;;;;;;8.48;nan;98924.56;4960222;28;20211;-83
2024/01/01 01:56:52;;;;;;;1.65;0.93;;;;;;;8.45;nan;98930.00;4965541;28;20683;-84
2024/01/01 01:59:17;;;;;;;2.50;0.85;;;;;;;8.43;nan;98916.19;4966006;28;20188;-83
2024/01/01 02:01:43;;;;;;;0.87;0.87;;;;;;;8.42;nan;98920.56;4962092;28;20202;-82
2024/01/01 02:04:08;;;;;;;2.50;0.73;;;;;;;8.44;nan;98923.94;4961511;28;20206;-84
2024/01/01 02:06:34;;;;;;;1.10;1.00;;;;;;;8.44;nan;98938.78;4965189;28;20207;-81
2024/01/01 02:08:59;;;;;;;3.80;1.30;;;;;;;8.44;nan;98921.31;4984631;28;20468;-83
2024/01/01 02:11:25;;;;;;;1.77;1.00;;;;;;;8.42;nan;98925.78;4985778;28;20437;-81
2024/01/01 02:13:50;;;;;;;1.10;0.70;;;;;;;8.43;nan;98931.91;4968008;28;20398;-83
2024/01/01 02:16:16;;;;;;;2.80;0.80;;;;;;;8.38;nan;98919.91;4987045;28;20218;-83
2024/01/01 02:18:42;;;;;;;1.25;0.63;;;;;;;8.34;nan;98921.03;4968787;28;20223;-83
2024/01/01 02:21:08;;;;;;;0.60;0.60;;;;;;;8.31;nan;98920.41;4986760;28;20218;-85
2024/01/01 02:23:34;;;;;;;0.98;0.95;;;;;;;8.25;nan;98923.44;4985264;28;20192;-84
2024/01/01 02:25:59;;;;;;;1.23;1.13;;;;;;;8.18;nan;98934.28;4969733;28;20226;-83
2024/01/01 02:28:25;;;;;;;0.70;0.60;;;;;;;8.13;nan;98901.53;4983948;28;20244;-82
2024/01/01 02:30:50;;;;;;;1.77;0.90;;;;;;;8.11;nan;98921.69;4978974;28;20708;-84
2024/01/01 02:33:16;;;;;;;0.70;0.60;;;;;;;8.12;nan;98933.84;4983017;28;20371;-81
2024/01/01 02:35:42;;;;;;;3.43;1.33;;;;;;;8.13;nan;98930.31;4981439;28;20446;-83
2024/01/01 02:38:08;;;;;;;2.70;0.90;;;;;;;8.15;nan;98938.88;4980782;28;20447;-84
2024/01/01 02:40:34;;;;;;;1.20;0.70;;;;;;;8.15;nan;98939.69;4986183;28;20438;-83
2024/01/01 02:43:01;;;;;;;0.70;0.60;;;;;;;8.12;nan;98942.50;4967574;28;20782;-82
2024/01/01 02:45:30;;;;;;;1.10;0.80;;;;;;;8.20;nan;98955.09;4982831;28;20768;-82
2024/01/01 02:47:56;;;;;;;1.00;0.70;;;;;;;8.19;nan;98946.44;4982815;28;20206;-83
2024/01/01 02:50:22;;;;;;;0.70;0.70;;;;;;;8.19;nan;98935.13;4982890;28;20273;-80
2024/01/01 02:52:48;;;;;;;0.77;0.63;;;;;;;8.15;nan;98944.94;4984193;28;20206;-83
2024/01/01 02:55:15;;;;;;;1.77;0.90;;;;;;;8.16;nan;98957.09;4986723;28;20469;-82
2024/01/01 02:57:41;;;;;;;1.95;0.70;;;;;;;8.14;nan;98956.34;4964217;28;20707;-83
2024/01/01 03:00:09;;;;;;;3.23;0.63;;;;;;;8.16;nan;98959.72;4962981;28;20195;-81
2024/01/01 03:02:38;;;;;;;1.27;0.60;;;;;;;8.14;nan;98963.34;4985740;28;20194;-81
2024/01/01 03:05:07;;;;;;;1.23;0.75;;;;;;;8.15;nan;98959.78;4964950;28;20542;-82
2024/01/01 03:07:33;;;;;;;2.27;0.70;;;;;;;8.14;nan;98974.66;4982481;28;20880;-83
2024/01/01 03:09:59;;;;;;;1.37;0.70;;;;;;;8.16;nan;98971.94;4981882;28;21065;-81
2024/01/01 03:12:24;;;;;;;1.27;0.77;;;;;;;8.10;nan;98974.94;4964009;28;20246;-81
2024/01/01 03:14:50;;;;;;;4.70;1.10;;;;;;;8.10;nan;98974.94;4986199;28;20489;-82
2024/01/01 03:17:15;;;;;;;1.13;0.93;;;;;;;8.09;nan;98974.09;4984586;28;20251;-80
2024/01/01 03:19:41;;;;;;;1.97;0.83;;;;;;;8.07;nan;98983.81;4963841;28;20315;-81
2024/01/01 03:22:07;;;;;;;2.20;0.90;;;;;;;8.05;nan;98967.41;4988217;28;20210;-81
2024/01/01 03:24:32;;;;;;;11.30;1.90;;;;;;;8.03;nan;98971.88;4969311;28;20783;-82
2024/01/01 03:26:57;;;;;;;3.97;0.87;;;;;;;8.01;nan;98978.97;4982973;28;20219;-80
2024/01/01 03:29:23;;;;;;;1.37;0.70;;;;;;;8.01;nan;98986.00;4966495;28;20250;-83
2024/01/01 03:31:48;;;;;;;1.30;0.80;;;;;;;8.02;nan;98977.19;4947155;28;20230;-83
2024/01/01 03:34:13;;;;;;;3.13;1.10;;;;;;;8.03;nan;98981.50;4982859;28;20805;-82
2024/01/01 03:36:39;;;;;;;2.20;0.70;;;;;;;8.07;nan;98989.03;4962993;28;20222;-81
2024/01/01 03:39:05;;;;;;;1.90;0.87;;;;;;;8.10;nan;98988.00;4984679;28;20569;-82
2024/01/01 03:41:30;;;;;;;3.23;0.90;;;;;;;8.14;nan;98979.06;4985128;28;20453;-83
2024/01/01 03:43:58;;;;;;;0.70;0.60;;;;;;;8.17;nan;98974.44;4967748;28;20195;-82
2024/01/01 03:46:24;;;;;;;1.45;0.80;;;;;;;8.19;nan;98976.97;4970134;28;20226;-81
2024/01/01 03:48:50;;;;;;;0.70;0.70;;;;;;;8.18;nan;98980.50;4968363;28;20214;-83
2024/01/01 03:51:15;;;;;;;1.87;0.70;;;;;;;8.20;nan;98989.13;4965624;28;20667;-81
2024/01/01 03:53:41;;;;;;;1.93;1.00;;;;;;;8.19;nan;98984.84;4970461;28;20214;-83
2024/01/01 03:56:06;;;;;;;2.00;0.80;;;;;;;8.19;nan;98983.03;4984829;28;20208;-82
2024/01/01 03:58:32;;;;;;;2.50;0.80;;;;;;;8.16;nan;98978.00;4982400;28;20202;-84
2024/01/01 04:00:57;;;;;;;2.40;1.00;;;;;;;8.18;nan;98972.66;4975664;28;20200;-81
2024/01/01 04:03:23;;;;;;;3.07;0.80;;;;;;;8.13;nan;98969.53;4983087;28;20258;-81
2024/01/01 04:05:48;;;;;;;5.87;0.83;;;;;;;8.08;nan;98982.91;4984198;28;21257;-83
2024/01/01 04:08:13;;;;;;;1.37;0.70;;;;;;;8.03;nan;98984.13;4985785;28;20206;-84
2024/01/01 04:10:39;;;;;;;3.07;0.97;;;;;;;7.97;nan;98990.59;4967003;28;20273;-84
2024/01/01 04:13:05;;;;;;;1.03;0.90;;;;;;;7.90;nan;98987.50;4988071;28;20462;-82
2024/01/01 04:15:30;;;;;;;2.53;0.70;;;;;;;7.86;nan;98979.97;4969279;28;20227;-84
2024/01/01 04:17:55;;;;;;;1.73;0.70;;;;;;;7.82;nan;98988.91;4987387;28;20206;-80
2024/01/01 04:20:21;;;;;;;2.00;0.90;;;;;;;7.80;nan;98989.00;4987563;28;20209;-81
2024/01/01 04:22:51;;;;;;;1.00;0.60;;;;;;;7.78;nan;98992.66;4987145;28;20195;-81
2024/01/01 04:25:17;;;;;;;1.45;0.80;;;;;;;7.75;nan;98975.41;4985320;28;20722;-82
2024/01/01 04:27:43;;;;;;;0.80;0.77;;;;;;;7.76;nan;98996.19;4988046;28;20284;-81
2024/01/01 04:30:09;;;;;;;4.30;1.33;;;;;;;7.78;nan;98996.13;4989539;28;20792;-82
2024/01/01 04:32:34;;;;;;;3.20;1.10;;;;;;;7.82;nan;98994.16;4991692;28;20691;-81
2024/01/01 04:34:59;;;;;;;2.80;1.13;;;;;;;7.83;nan;98991.44;4987281;28;20466;-82
2024/01/01 04:37:25;;;;;;;2.70;0.90;;;;;;;7.86;nan;98999.09;4989310;28;20219;-81
2024/01/01 04:39:50;;;;;;;2.33;0.90;;;;;;;7.87;nan;99002.56;4984682;28;20430;-82
2024/01/01 04:42:15;;;;;;;1.63;0.87;;;;;;;7.89;nan;99000.69;4991468;28;20194;-81
2024/01/01 04:44:41;;;;;;;0.87;0.70;;;;;;;7.91;nan;98999.66;4988803;28;20270;-83
2024/01/01 04:47:06;;;;;;;1.77;1.07;;;;;;;7.92;nan;99003.09;4982845;28;20275;-82
2024/01/01 04:49:32;;;;;;;3.83;0.93;;;;;;;7.91;nan;98997.03;4984475;28;20250;-83
2024/01/01 04:51:57;;;;;;;4.40;0.90;;;;;;;7.90;nan;98989.28;4982308;28;20203;-82
2024/01/01 04:54:23;;;;;;;1.63;0.87;;;;;;;7.86;nan;98987.81;4987837;28;20207;-81
2024/01/01 04:56:48;;;;;;;1.10;1.00;;;;;;;7.86;nan;98991.25;4991033;28;20299;-84
2024/01/01 04:59:13;;;;;;;0.90;0.77;;;;;;;7.86;nan;98996.47;4988339;28;20191;-83
2024/01/01 05:01:39;;;;;;;8.20;1.50;;;;;;;7.86;nan;99000.88;4990800;28;20270;-81
2024/01/01 05:04:04;;;;;;;0.80;0.67;;;;;;;7.89;nan;98998.06;4989760;28;20199;-81
2024/01/01 05:06:30;;;;;;;1.37;0.90;;;;;;;7.91;nan;99002.28;4989339;28;20207;-84
2024/01/01 05:08:55;;;;;;;2.10;1.07;;;;;;;7.94;nan;99004.69;4991400;28;20269;-82
2024/01/01 05:11:20;;;;;;;2.50;1.20;;;;;;;7.98;nan;99000.94;4991740;28;20206;-81
2024/01/01 05:13:46;;;;;;;1.07;0.70;;;;;;;7.98;nan;99000.94;4993445;28;20680;-81
2024/01/01 05:16:11;;;;;;;4.80;1.50;;;;;;;7.97;nan;98998.44;4991781;28;20213;-83
2024/01/01 05:18:37;;;;;;;1.00;0.90;;;;;;;7.96;nan;99000.19;4988320;28;20785;-82
2024/01/01 05:21:02;;;;;;;3.63;1.17;;;;;;;7.94;nan;99003.84;4987057;28;20195;-82
2024/01/01 05:23:28;;;;;;;2.23;1.00;;;;;;;7.92;nan;99008.34;4989881;28;20635;-84
2024/01/01 05:25:53;;;;;;;0.80;0.70;;;;;;;7.88;nan;99009.44;4988821;28;20206;-84
2024/01/01 05:28:18;;;;;;;5.37;1.07;;;;;;;7.84;nan;99021.03;4990452;28;20695;-82
2024/01/01 05:30:44;;;;;;;1.40;0.70;;;;;;;7.81;nan;99008.16;4987386;28;20237;-81
2024/01/01 05:33:09;;;;;;;1.93;1.00;;;;;;;7.82;nan;99004.59;4989396;28;20203;-84
2024/01/01 05:35:36;;;;;;;2.47;0.90;;;;;;;7.84;nan;99018.44;4987255;28;20211;-83
2024/01/01 05:38:02;;;;;;;1.50;0.90;;;;;;;7.82;nan;99033.38;4987249;28;20439;-82
2024/01/01 05:40:28;;;;;;;1.43;0.90;;;;;;;7.84;nan;99026.28;4986761;28;20822;-84
2024/01/01 05:42:53;;;;;;;2.43;1.03;;;;;;;7.84;nan;99037.56;4986615;28;20450;-84
2024/01/01 05:45:18;;;;;;;1.07;0.90;;;;;;;7.89;nan;99034.69;4986605;28;20199;-82
2024/01/01 05:47:44;;;;;;;3.07;1.43;;;;;;;7.87;nan;99045.22;4986578;28;20215;-81
2024/01/01 05:50:09;;;;;;;6.13;0.90;;;;;;;7.89;nan;99027.66;4977623;28;20762;-82
2024/01/01 05:52:34;;;;;;;4.97;0.90;;;;;;;7.90;nan;99034.56;4974440;28;20206;-83
2024/01/01 05:55:00;;;;;;;2.60;0.83;;;;;;;7.91;nan;99031.03;4976273;28;20215;-82
2024/01/01 05:57:25;;;;;;;3.67;0.83;;;;;;;7.96;nan;99033.34;4974904;28;20211;-82
2024/01/01 05:59:51;;;;;;;1.97;0.80;;;;;;;7.94;nan;99037.84;4974948;28;20204;-84
2024/01/01 06:02:16;;;;;;;5.03;0.80;;;;;;;7.95;nan;99029.91;4976750;28;20215;-81
2024/01/01 06:04:41;;;;;;;2.40;0.77;;;;;;;7.98;nan;99041.94;4973040;28;20203;-81
2024/01/01 06:07:07;;;;;;;3.03;0.83;;;;;;;8.01;nan;99028.66;4980338;28;20206;-81
2024/01/01 06:09:34;;;;;;;2.20;2.00;;;;;;;8.01;nan;99043.53;4984232;28;20195;-83
2024/01/01 06:12:00;;;;;;;1.85;1.10;;;;;;;8.03;nan;99052.97;4984729;28;20245;-83
2024/01/01 06:14:25;;;;;;;1.80;0.70;;;;;;;8.03;nan;99060.81;4985581;28;20204;-81
2024/01/01 06:16:50;;;;;;;2.43;0.80;;;;;;;8.04;nan;99056.41;4988525;28;21204;-83
2024/01/01 06:19:16;;;;;;;1.50;0.70;;;;;;;8.04;nan;99056.41;4987153;28;20218;-81
2024/01/01 06:21:41;;;;;;;4.53;1.10;;;;;;;8.04;nan;99062.47;4983563;28;20199;-82
2024/01/01 06:24:06;;;;;;;3.73;1.03;;;;;;;8.03;nan;99052.97;4985715;28;20549;-83
2024/01/01 06:26:32;;;;;;;5.93;0.90;;;;;;;8.03;nan;99059.97;4986164;28;20207;-84
2024/01/01 06:28:58;;;;;;;1.90;1.80;;;;;;;8.00;nan;99054.94;4986918;28;20207;-82
2024/01/01 06:31:24;;;;;;;2.03;0.88;;;;;;;8.04;nan;99061.66;4984045;28;20304;-82
2024/01/01 06:33:49;;;;;;;1.43;1.17;;;;;;;8.02;nan;99056.53;4982583;28;20677;-83
2024/01/01 06:36:15;;;;;;;2.90;1.07;;;;;;;8.03;nan;99071.28;4986043;28;20226;-81
2024/01/01 06:38:40;;;;;;;3.40;1.00;;;;;;;8.04;nan;99064.25;4984615;28;20875;-82
2024/01/01 06:41:09;;;;;;;2.37;0.93;;;;;;;7.98;nan;99062.88;4987174;28;20206;-81
2024/01/01 06:43:34;;;;;;;1.90;0.85;;;;;;;7.94;nan;99056.16;4983121;28;20210;-81
2024/01/01 06:45:59;;;;;;;2.83;0.93;;;;;;;7.90;nan;99072.97;4981793;28;20232;-82
2024/01/01 06:48:25;;;;;;;1.10;0.70;;;;;;;7.86;nan;99084.56;4980326;28;20660;-81
2024/01/01 06:50:51;;;;;;;1.60;0.80;;;;;;;7.80;nan;99093.59;4978216;28;20314;-83
2024/01/01 06:53:16;;;;;;;1.97;0.80;;;;;;;7.76;nan;99090.31;4979145;28;20242;-81
2024/01/01 06:55:42;;;;;;;6.43;1.00;;;;;;;7.68;nan;99097.78;4983206;28;20471;-83
2024/01/01 06:58:07;;;;;;;2.17;0.83;;;;;;;7.66;nan;99104.03;4986326;28;20212;-82
2024/01/01 07:00:33;;;;;;;1.33;0.83;;;;;;;7.65;nan;99097.97;4985135;28;20250;-82
2024/01/01 07:02:58;;;;;;;3.07;1.10;;;;;;;7.64;nan;99100.66;4981624;28;20307;-82
2024/01/01 07:05:24;;;;;;;3.60;0.90;;;;;;;7.62;nan;99094.72;4981350;28;20199;-80
2024/01/01 07:07:51;;;;;;;5.05;1.20;;;;;;;7.60;nan;99105.25;4975961;28;20454;-82
2024/01/01 07:10:16;;;;;;;2.25;0.90;;;;;;;7.57;nan;99110.66;4977536;28;20207;-81
2024/01/01 07:12:42;;;;;;;2.70;0.90;;;;;;;7.55;nan;99112.50;4978278;28;20207;-82
2024/01/01 07:15:07;;;;;;;0.93;0.80;;;;;;;7.53;nan;99103.91;4980033;28;20306;-82
2024/01/01 07:17:33;;;;;;;1.53;0.77;;;;;;;7.49;nan;99103.25;4981080;28;20190;-81
2024/01/01 07:20:00;;;;;;;2.50;0.77;;;;;;;7.47;nan;99120.81;4981156;28;20889;-81
2024/01/01 07:22:25;;;;;;;1.65;0.80;;;;;;;7.48;nan;99126.88;4967974;28;20253;-82
2024/01/01 07:24:50;;;;;;;1.07;0.60;;;;;;;7.47;nan;99131.25;4981212;28;20393;-82
2024/01/01 07:27:16;;;;;;;4.80;1.40;;;;;;;7.48;nan;99139.94;4980585;28;20212;-80
2024/01/01 07:29:41;;;;;;;4.37;1.50;;;;;;;7.48;nan;99138.19;4981136;28;20199;-81
2024/01/01 07:32:07;;;;;;;1.20;0.57;;;;;;;7.54;nan;99161.34;4978076;28;20204;-82
2024/01/01 07:34:32;;;;;;;0.70;0.70;;;;;;;7.55;nan;99149.09;4975910;28;20287;-81
2024/01/01 07:36:58;;;;;;;3.07;1.20;;;;;;;7.56;nan;99153.41;4977785;28;20208;-81
2024/01/01 07:39:24;;;;;;;1.80;1.00;;;;;;;7.61;nan;99153.13;4975295;28;20453;-80
2024/01/01 07:41:51;;;;;;;1.88;0.80;;;;;;;7.61;nan;99156.56;4976610;28;20584;-82
2024/01/01 07:44:16;;;;;;;3.30;1.20;;;;;;;7.61;nan;99148.72;4978114;28;20249;-80
2024/01/01 07:46:42;;;;;;;1.83;1.00;;;;;;;7.61;nan;99148.72;4979248;28;20227;-80
2024/01/01 07:49:08;;;;;;;3.90;0.80;;;;;;;7.61;nan;99147.91;5036721;23;20262;-88
2024/01/01 07:51:34;;;;;;;1.40;1.03;;;;;;;7.60;nan;99148.84;4993551;28;20464;-86
2024/01/01 07:54:00;;;;;;;1.02;0.75;;;;;;;7.61;nan;99156.56;5002984;28;20501;-82
2024/01/01 07:56:26;;;;;;;2.83;0.83;;;;;;;7.64;nan;99158.16;5000798;28;20203;-83
2024/01/01 07:58:53;;;;;;;2.42;1.02;;;;;;;7.64;nan;99153.81;5003126;28;20805;-87
2024/01/01 08:01:19;;;;;;;1.20;0.90;;;;;;;7.67;nan;99147.53;5002370;28;20206;-82
2024/01/01 08:03:44;;;;;;;1.43;0.80;;;;;;;7.71;nan;99142.03;5004593;28;20195;-81
2024/01/01 08:06:10;;;;;;;3.20;0.90;;;;;;;7.71;nan;99154.28;5003887;28;20591;-88
2024/01/01 08:08:35;;;;;;;3.27;1.50;;;;;;;7.72;nan;99146.34;5006194;28;20227;-83
2024/01/01 08:11:03;;;;;;;1.70;1.00;;;;;;;7.73;nan;99153.25;5004682;28;20397;-87
2024/01/01 08:13:29;;;;;;;1.33;1.13;;;;;;;7.75;nan;99145.34;5002123;28;20230;-87
2024/01/01 08:15:54;;;;;;;2.93;1.10;;;;;;;7.75;nan;99140.94;4997138;28;20646;-84
2024/01/01 08:18:20;;;;;;;2.63;1.10;;;;;;;7.76;nan;99150.44;5004832;28;20825;-84
2024/01/01 08:20:45;;;;;;;1.60;0.67;;;;;;;7.73;nan;99148.03;5004639;28;20667;-87
2024/01/01 08:23:11;;;;;;;1.93;1.07;;;;;;;7.71;nan;99157.72;5003699;28;20207;-88
2024/01/01 08:25:39;;;;;;;3.37;1.47;;;;;;;7.72;nan;99162.03;5002239;28;20191;-87
2024/01/01 08:28:05;;;;;;;4.55;1.25;;;;;;;7.73;nan;99157.66;5003982;28;20211;-85
2024/01/01 08:30:31;;;;;;;2.78;0.75;;;;;;;7.76;nan;99171.38;4997774;28;20230;-86
2024/01/01 08:32:56;;;;;;;3.83;1.47;;;;;;;7.79;nan;99177.34;4997488;28;20226;-86
2024/01/01 08:35:22;;;;;;;1.20;1.10;;;;;;;7.83;nan;99178.84;5000410;28;20199;-84
2024/01/01 08:37:48;;;;;;;2.17;0.83;;;;;;;7.90;nan;99173.16;5000530;28;20187;-87
2024/01/01 08:40:14;;;;;;;0.85;0.85;;;;;;;7.96;nan;99174.56;4994951;28;20221;-87
2024/01/01 08:42:39;;;;;;;1.23;0.70;;;;;;;8.02;nan;99184.69;4997537;28;20203;-87
2024/01/01 08:45:06;;;;;;;2.80;0.83;;;;;;;8.12;nan;99185.78;4996950;28;20521;-87
2024/01/01 08:47:31;;;;;;;2.38;1.05;;;;;;;8.24;nan;99191.25;4992022;28;20206;-86
2024/01/01 08:49:56;;;;;;;2.50;1.33;;;;;;;8.36;nan;99185.25;4998153;28;20227;-86
2024/01/01 08:52:22;;;;;;;2.43;0.77;;;;;;;8.49;nan;99188.81;4999698;28;20586;-84
2024/01/01 08:54:48;;;;;;;3.00;1.00;;;;;;;8.67;nan;99189.47;5002552;28;20214;-87
2024/01/01 08:57:14;;;;;;;3.67;0.90;;;;;;;8.88;nan;99195.09;5001990;28;21227;-86
2024/01/01 08:59:40;;;;;;;2.22;0.90;;;;;;;9.16;nan;99191.59;5003350;28;20230;-84
2024/01/01 09:02:06;;;;;;;1.73;1.10;;;;;;;9.59;nan;99187.94;4999799;28;20214;-87
2024/01/01 09:04:32;;;;;;;1.17;0.80;;;;;;;10.03;nan;99178.88;5002357;28;20493;-86
2024/01/01 09:07:00;;;;;;;4.10;2.05;;;;;;;10.39;nan;99184.22;5002133;28;20183;-85
2024/01/01 09:09:29;;;;;;;2.75;1.00;;;;;;;10.64;nan;99185.16;5001533;28;20542;-88
2024/01/01 09:11:55;;;;;;;1.70;0.82;;;;;;;10.75;nan;99187.84;4999366;28;20550;-86
2024/01/01 09:14:20;;;;;;;1.52;0.70;;;;;;;10.83;nan;99188.16;5002885;28;20203;-87
2024/01/01 09:16:47;;;;;;;1.13;0.90;;;;;;;10.68;nan;99191.00;5003559;28;20728;-88
2024/01/01 09:19:14;;;;;;;2.08;0.88;;;;;;;10.55;nan;99197.13;5006464;28;20219;-88
2024/01/01 09:21:39;;;;;;;1.58;1.20;;;;;;;10.58;nan;99198.69;5008072;28;20267;-84
2024/01/01 09:24:07;;;;;;;1.43;0.77;;;;;;;10.51;nan;99198.28;5012988;28;20227;-81
2024/01/01 09:26:34;;;;;;;1.98;0.90;;;;;;;10.40;nan;99193.78;5005386;28;20206;-87
2024/01/01 09:28:59;;;;;;;3.42;1.13;;;;;;;10.25;nan;99197.44;5011409;28;20211;-83
2024/01/01 09:31:26;;;;;;;2.37;1.00;;;;;;;10.09;nan;99208.13;5016779;28;20287;-88
2024/01/01 09:33:54;;;;;;;3.03;1.55;;;;;;;9.97;nan;99206.38;5021297;28;20242;-89
2024/01/01 09:36:20;;;;;;;0.70;0.63;;;;;;;9.89;nan;99214.75;5019439;28;20205;-84
2024/01/01 09:38:45;;;;;;;1.10;0.80;;;;;;;9.81;nan;99209.16;5010664;28;20230;-87
2024/01/01 09:41:11;;;;;;;6.37;1.37;;;;;;;9.72;nan;99213.25;5013567;28;20203;-86
2024/01/01 09:43:37;;;;;;;1.80;0.93;;;;;;;9.73;nan;99216.72;5014704;28;20208;-85
2024/01/01 09:46:04;;;;;;;6.32;1.23;;;;;;;9.70;nan;99215.13;5012316;28;20215;-82
2024/01/01 09:48:30;;;;;;;2.53;1.00;;;;;;;9.69;nan;99220.47;5017224;28;20349;-90
2024/01/01 09:50:55;;;;;;;1.73;0.80;;;;;;;9.69;nan;99217.84;5017402;28;20192;-85
2024/01/01 09:53:20;;;;;;;2.03;1.20;;;;;;;9.67;nan;99225.00;5016051;28;20203;-84
2024/01/01 09:55:53;;;;;;;2.30;1.03;;;;;;;9.63;nan;99215.63;5011254;28;20356;-90
2024/01/01 09:58:19;;;;;;;2.40;1.40;;;;;;;9.55;nan;99212.69;5015290;28;20226;-83
2024/01/01 10:00:44;;;;;;;1.30;1.10;;;;;;;9.52;nan;99217.19;5014020;28;20199;-84
2024/01/01 10:03:10;;;;;;;1.50;0.87;;;;;;;9.68;nan;99222.25;5012812;28;20609;-88
2024/01/01 10:05:40;;;;;;;1.00;0.90;;;;;;;9.94;nan;99217.91;5014469;28;20680;-82
2024/01/01 10:08:13;;;;;;;2.25;1.00;;;;;;;10.20;nan;99210.03;5012900;28;20725;-88
2024/01/01 10:10:39;;;;;;;0.82;0.82;;;;;;;10.40;nan;99214.78;5007694;28;20199;-82
2024/01/01 10:13:12;;;;;;;2.35;1.40;;;;;;;10.67;nan;99211.19;5011923;28;20225;-84
2024/01/01 10:15:39;;;;;;;2.03;1.55;;;;;;;10.82;nan;99204.84;5010892;28;20230;-87
2024/01/01 10:18:14;;;;;;;2.90;1.10;;;;;;;10.90;nan;99219.22;5009783;28;20195;-85
2024/01/01 10:20:40;;;;;;;3.30;1.10;;;;;;;10.82;nan;99210.09;4987207;28;20198;-84
2024/01/01 10:23:23;;;;;;;4.07;1.85;;;;;;;10.65;nan;99213.09;4984077;28;20199;-83
2024/01/01 10:25:51;;;;;;;2.88;1.70;;;;;;;10.55;nan;99218.13;4987257;28;20195;-84
2024/01/01 10:28:17;;;;;;;0.80;0.77;;;;;;;10.41;nan;99215.63;4986882;28;20272;-84
2024/01/01 10:30:48;;;;;;;7.90;1.23;;;;;;;10.24;nan;99219.38;4985954;28;20590;-84
2024/01/01 10:33:15;;;;;;;1.40;1.10;;;;;;;10.06;nan;99225.88;4989179;28;20266;-84
2024/01/01 10:35:42;;;;;;;0.80;0.80;;;;;;;9.94;nan;99223.16;4988580;28;20199;-84
2024/01/01 10:38:08;;;;;;;1.73;1.00;;;;;;;9.87;nan;99226.28;4987177;28;20337;-84
2024/01/01 10:40:33;;;;;;;4.00;1.33;;;;;;;9.75;nan;99222.72;4988929;28;20202;-84
2024/01/01 10:43:00;;;;;;;2.70;0.97;;;;;;;9.68;nan;99224.03;4990484;28;20207;-84
2024/01/01 10:45:26;;;;;;;1.45;0.93;;;;;;;9.63;nan;99226.13;4987014;28;20203;-87
2024/01/01 10:47:57;;;;;;;4.83;1.03;;;;;;;9.63;nan;99236.59;4997609;28;20300;-88
2024/01/01 10:50:29;;;;;;;2.22;1.25;;;;;;;9.70;nan;99228.25;4997020;28;20231;-83
2024/01/01 10:53:29;;;;;;;3.00;1.40;;;;;;;9.79;nan;99228.56;5000669;28;20199;-86
2024/01/01 10:56:07;;;;;;;3.60;0.90;;;;;;;9.79;nan;99233.81;5000483;28;20267;-83
2024/01/01 10:59:02;;;;;;;1.90;1.40;;;;;;;9.79;nan;99239.91;5000924;28;20226;-86
2024/01/01 11:01:28;;;;;;;3.97;1.67;;;;;;;9.74;nan;99229.69;5001857;28;20201;-87
2024/01/01 11:03:54;;;;;;;1.60;1.00;;;;;;;9.72;nan;99236.00;5002115;28;20368;-85
2024/01/01 11:06:33;;;;;;;5.10;1.30;;;;;;;9.71;nan;99232.53;5004685;28;20222;-86
2024/01/01 11:09:18;;;;;;;2.00;1.45;;;;;;;9.65;nan;99238.19;4997350;28;20211;-84
2024/01/01 11:11:52;;;;;;;1.10;1.00;;;;;;;9.65;nan;99238.19;4999089;28;20234;-84
2024/01/01 11:14:26;;;;;;;1.95;1.50;;;;;;;9.65;nan;99235.56;4999860;28;20328;-87
2024/01/01 11:16:53;;;;;;;6.25;1.40;;;;;;;9.69;nan;99231.81;4997522;28;20203;-85
2024/01/01 11:19:48;;;;;;;1.48;1.17;;;;;;;9.73;nan;99229.81;4997599;28;20203;-84
2024/01/01 11:22:19;;;;;;;4.72;1.30;;;;;;;9.78;nan;99232.97;5002025;28;20249;-85
2024/01/01 11:24:48;;;;;;;2.58;1.38;;;;;;;9.85;nan;99234.25;5000162;28;20203;-83
2024/01/01 11:27:24;;;;;;;2.92;1.40;;;;;;;9.95;nan;99229.22;4996466;28;20698;-87
2024/01/01 11:29:50;;;;;;;1.58;1.17;;;;;;;10.06;nan;99223.25;4996331;28;20210;-86
2024/01/01 11:32:19;;;;;;;6.93;2.40;;;;;;;10.14;nan;99228.81;4998936;28;20208;-83
2024/01/01 11:35:17;;;;;;;12.45;1.75;;;;;;;10.20;nan;99212.66;4998011;28;20206;-84
2024/01/01 11:37:44;;;;;;;3.33;1.20;;;;;;;10.27;nan;99207.84;4999634;28;20243;-84
2024/01/01 11:40:10;;;;;;;3.72;1.70;;;;;;;10.33;nan;99218.78;4995094;28;20714;-86
2024/01/01 11:42:36;;;;;;;2.88;1.17;;;;;;;10.46;nan;99217.94;4996445;28;20712;-84
2024/01/01 11:45:09;;;;;;;6.13;1.53;;;;;;;10.58;nan;99206.56;4997241;28;20226;-85
2024/01/01 11:47:36;;;;;;;3.67;1.20;;;;;;;10.65;nan;99210.47;4994883;28;20238;-86
2024/01/01 11:50:05;;;;;;;2.67;1.50;;;;;;;10.71;nan;99201.31;4997217;28;20238;-84
2024/01/01 11:52:31;;;;;;;2.65;1.10;;;;;;;10.83;nan;99206.53;5001241;28;20306;-86
2024/01/01 11:55:00;;;;;;;14.65;5.82;;;;;;;10.96;nan;99218.78;4998769;28;20257;-87